Wetterdaten: Woche 09.05.11 - 15.05.11 (KW19)
Datum Zeit Temperatur Luftfeuchte Luftdruck Niederschlag Windrichtung Sonnenschein Solar Wind
09.05.2011 00:00 14,1 C 59 % 1019,4 hPa 0,0 l/m O-NO 0,00 h 0 W/m 11,8 km/h (2 Bft)
09.05.2011 01:00 12,6 C 61 % 1019,7 hPa 0,0 l/m N-NO 0,00 h 0 W/m 8,2 km/h (2 Bft)
09.05.2011 02:00 11,4 C 64 % 1019,6 hPa 0,0 l/m O-NO 0,00 h 0 W/m 14,6 km/h (3 Bft)
09.05.2011 03:00 10,1 C 67 % 1019,8 hPa 0,0 l/m NO 0,00 h 0 W/m 12,3 km/h (3 Bft)
09.05.2011 04:00 8,6 C 72 % 1020,2 hPa 0,0 l/m N-NO 0,00 h 0 W/m 5,7 km/h (1 Bft)
09.05.2011 05:00 7,6 C 75 % 1020,2 hPa 0,0 l/m N 0,00 h 6 W/m 8,0 km/h (2 Bft)
09.05.2011 06:00 7,1 C 76 % 1020,6 hPa 0,0 l/m N 0,25 h 40 W/m 8,4 km/h (2 Bft)
09.05.2011 07:00 8,8 C 69 % 1020,8 hPa 0,0 l/m N-NO 1,00 h 208 W/m 9,8 km/h (2 Bft)
09.05.2011 08:00 10,7 C 63 % 1021,0 hPa 0,0 l/m NO 1,00 h 390 W/m 12,8 km/h (3 Bft)
09.05.2011 09:00 12,8 C 59 % 1021,0 hPa 0,0 l/m NO 1,00 h 567 W/m 15,7 km/h (3 Bft)
09.05.2011 10:00 15,9 C 49 % 1021,1 hPa 0,0 l/m O-NO 1,00 h 708 W/m 18,4 km/h (3 Bft)
09.05.2011 11:00 17,9 C 38 % 1021,2 hPa 0,0 l/m O-NO 1,00 h 849 W/m 20,0 km/h (4 Bft)
09.05.2011 12:00 19,6 C 34 % 1021,0 hPa 0,0 l/m O-NO 1,00 h 914 W/m 22,1 km/h (4 Bft)
09.05.2011 13:00 20,9 C 30 % 1020,8 hPa 0,0 l/m O-NO 1,00 h 916 W/m 20,1 km/h (4 Bft)
09.05.2011 14:00 22,1 C 27 % 1020,6 hPa 0,0 l/m O-NO 1,00 h 899 W/m 19,8 km/h (4 Bft)
09.05.2011 15:00 22,9 C 22 % 1020,5 hPa 0,0 l/m O 1,00 h 826 W/m 19,8 km/h (4 Bft)
09.05.2011 16:00 23,6 C 21 % 1020,3 hPa 0,0 l/m O-SO 1,00 h 667 W/m 19,3 km/h (3 Bft)
09.05.2011 17:00 23,1 C 20 % 1020,3 hPa 0,0 l/m O 0,92 h 434 W/m 17,7 km/h (3 Bft)
09.05.2011 18:00 22,1 C 23 % 1020,4 hPa 0,0 l/m O 0,50 h 214 W/m 13,2 km/h (3 Bft)
09.05.2011 19:00 21,2 C 28 % 1020,7 hPa 0,0 l/m O-NO 1,00 h 138 W/m 9,4 km/h (2 Bft)
09.05.2011 20:00 19,3 C 34 % 1020,9 hPa 0,0 l/m O-NO 0,17 h 20 W/m 8,2 km/h (2 Bft)
09.05.2011 21:00 16,4 C 42 % 1021,2 hPa 0,0 l/m O-NO 0,00 h 0 W/m 4,3 km/h (1 Bft)
09.05.2011 22:00 14,1 C 48 % 1021,6 hPa 0,0 l/m N 0,00 h 0 W/m 3,7 km/h (1 Bft)
09.05.2011 23:00 12,8 C 49 % 1021,7 hPa 0,0 l/m N 0,00 h 0 W/m 3,3 km/h (1 Bft)
10.05.2011 00:00 11,6 C 54 % 1021,9 hPa 0,0 l/m N 0,00 h 0 W/m 3,6 km/h (1 Bft)
10.05.2011 01:00 10,9 C 56 % 1022,0 hPa 0,0 l/m N 0,00 h 0 W/m 6,0 km/h (2 Bft)
10.05.2011 02:00 10,2 C 56 % 1022,2 hPa 0,0 l/m N-NW 0,00 h 0 W/m 6,8 km/h (2 Bft)
10.05.2011 03:00 9,2 C 61 % 1022,2 hPa 0,0 l/m N-NW 0,00 h 0 W/m 5,1 km/h (1 Bft)
10.05.2011 04:00 8,1 C 66 % 1022,5 hPa 0,0 l/m N-NW 0,00 h 0 W/m 4,1 km/h (1 Bft)
10.05.2011 05:00 7,4 C 70 % 1022,8 hPa 0,0 l/m N-NW 0,00 h 6 W/m 2,3 km/h (1 Bft)
10.05.2011 06:00 7,6 C 70 % 1023,0 hPa 0,0 l/m N-NW 0,00 h 36 W/m 2,8 km/h (1 Bft)
10.05.2011 07:00 8,7 C 71 % 1023,5 hPa 0,0 l/m N 0,92 h 181 W/m 1,1 km/h (0 Bft)
10.05.2011 08:00 11,6 C 64 % 1023,8 hPa 0,0 l/m N-NW 1,00 h 368 W/m 2,1 km/h (1 Bft)
10.05.2011 09:00 14,8 C 54 % 1024,0 hPa 0,0 l/m W-NW 1,00 h 543 W/m 3,6 km/h (1 Bft)
10.05.2011 10:00 17,6 C 48 % 1023,9 hPa 0,0 l/m S 0,92 h 509 W/m 5,5 km/h (1 Bft)
10.05.2011 11:00 20,0 C 44 % 1023,9 hPa 0,0 l/m S-SW 1,00 h 685 W/m 10,6 km/h (2 Bft)
10.05.2011 12:00 22,5 C 42 % 1023,6 hPa 0,0 l/m S 1,00 h 737 W/m 11,7 km/h (2 Bft)
10.05.2011 13:00 23,7 C 38 % 1023,2 hPa 0,0 l/m S-SO 0,92 h 700 W/m 12,9 km/h (3 Bft)
10.05.2011 14:00 23,9 C 37 % 1023,0 hPa 0,0 l/m SW 0,58 h 549 W/m 13,2 km/h (3 Bft)
10.05.2011 15:00 24,4 C 37 % 1022,7 hPa 0,0 l/m S-SW 0,92 h 591 W/m 13,0 km/h (3 Bft)
10.05.2011 16:00 24,6 C 35 % 1022,4 hPa 0,0 l/m S-SO 0,67 h 389 W/m 9,9 km/h (2 Bft)
10.05.2011 17:00 24,1 C 37 % 1022,1 hPa 0,0 l/m SW 0,42 h 284 W/m 7,2 km/h (2 Bft)
10.05.2011 18:00 23,7 C 33 % 1022,0 hPa 0,0 l/m N-NO 0,67 h 221 W/m 12,2 km/h (2 Bft)
10.05.2011 19:00 22,0 C 35 % 1021,8 hPa 0,0 l/m NO 0,00 h 78 W/m 9,7 km/h (2 Bft)
10.05.2011 20:00 19,1 C 44 % 1021,9 hPa 0,0 l/m N 0,08 h 18 W/m 2,4 km/h (1 Bft)
10.05.2011 21:00 16,6 C 53 % 1022,3 hPa 0,0 l/m N 0,00 h 0 W/m 1,6 km/h (1 Bft)
10.05.2011 22:00 15,0 C 61 % 1022,7 hPa 0,0 l/m N 0,00 h 0 W/m 0,5 km/h (0 Bft)
10.05.2011 23:00 14,0 C 66 % 1022,6 hPa 0,0 l/m N 0,00 h 0 W/m 0,4 km/h (0 Bft)
11.05.2011 00:00 12,5 C 72 % 1022,6 hPa 0,0 l/m N 0,00 h 0 W/m 0,0 km/h (0 Bft)
11.05.2011 01:00 11,6 C 75 % 1022,1 hPa 0,0 l/m N 0,00 h 0 W/m 0,7 km/h (0 Bft)
11.05.2011 02:00 11,5 C 73 % 1021,8 hPa 0,0 l/m NW 0,00 h 0 W/m 5,0 km/h (1 Bft)
11.05.2011 03:00 12,1 C 69 % 1021,8 hPa 0,0 l/m N 0,00 h 0 W/m 2,9 km/h (1 Bft)
11.05.2011 04:00 10,4 C 78 % 1021,6 hPa 0,0 l/m N 0,00 h 0 W/m 0,3 km/h (0 Bft)
11.05.2011 05:00 10,8 C 80 % 1021,2 hPa 0,0 l/m N 0,00 h 0 W/m 0,1 km/h (0 Bft)
11.05.2011 06:00 11,2 C 80 % 1021,1 hPa 0,0 l/m N 0,00 h 24 W/m 0,3 km/h (0 Bft)
11.05.2011 07:00 12,8 C 76 % 1021,5 hPa 0,0 l/m N-NW 0,42 h 128 W/m 6,2 km/h (2 Bft)
11.05.2011 08:00 15,7 C 67 % 1021,5 hPa 0,0 l/m N-NW 0,67 h 290 W/m 4,5 km/h (1 Bft)
11.05.2011 09:00 18,8 C 58 % 1021,4 hPa 0,0 l/m N 1,00 h 497 W/m 8,3 km/h (2 Bft)
11.05.2011 10:00 20,5 C 53 % 1021,0 hPa 0,0 l/m N-NO 0,67 h 507 W/m 10,8 km/h (2 Bft)
11.05.2011 11:00 20,9 C 51 % 1020,6 hPa 0,0 l/m N-NO 0,17 h 335 W/m 9,3 km/h (2 Bft)
11.05.2011 12:00 21,6 C 48 % 1020,3 hPa 0,0 l/m N-NW 0,17 h 380 W/m 9,0 km/h (2 Bft)
11.05.2011 13:00 21,6 C 45 % 1020,0 hPa 0,0 l/m N 0,00 h 269 W/m 7,4 km/h (2 Bft)
11.05.2011 14:00 21,4 C 51 % 1019,4 hPa 0,0 l/m NW 0,08 h 233 W/m 6,0 km/h (2 Bft)
11.05.2011 15:00 22,7 C 43 % 1018,6 hPa 0,0 l/m W-NW 0,75 h 600 W/m 6,5 km/h (2 Bft)
11.05.2011 16:00 23,1 C 40 % 1017,9 hPa 0,0 l/m S-SW 0,58 h 439 W/m 5,2 km/h (1 Bft)
11.05.2011 17:00 23,3 C 40 % 1017,5 hPa 0,0 l/m O-SO 0,25 h 204 W/m 5,6 km/h (1 Bft)
11.05.2011 18:00 22,6 C 44 % 1017,0 hPa 0,0 l/m N-NO 0,25 h 155 W/m 7,1 km/h (2 Bft)
11.05.2011 19:00 20,8 C 54 % 1016,9 hPa 0,0 l/m N-NW 0,00 h 65 W/m 2,8 km/h (1 Bft)
11.05.2011 20:00 19,0 C 61 % 1017,1 hPa 0,0 l/m N 0,00 h 13 W/m 4,4 km/h (1 Bft)
11.05.2011 21:00 17,5 C 67 % 1017,5 hPa 0,0 l/m W 0,00 h 0 W/m 3,6 km/h (1 Bft)
11.05.2011 22:00 16,9 C 73 % 1017,6 hPa 0,0 l/m NW 0,00 h 0 W/m 13,9 km/h (3 Bft)
11.05.2011 23:00 15,6 C 82 % 1017,2 hPa 0,0 l/m N 0,00 h 0 W/m 2,4 km/h (1 Bft)
12.05.2011 00:00 14,7 C 86 % 1017,3 hPa 0,0 l/m W-SW 0,00 h 0 W/m 3,4 km/h (1 Bft)
12.05.2011 01:00 13,6 C 89 % 1017,0 hPa 0,0 l/m N 0,00 h 0 W/m 2,1 km/h (1 Bft)
12.05.2011 02:00 12,4 C 92 % 1016,3 hPa 0,0 l/m N 0,00 h 0 W/m 0,1 km/h (0 Bft)
12.05.2011 03:00 11,8 C 93 % 1015,8 hPa 0,0 l/m N 0,00 h 0 W/m 0,9 km/h (0 Bft)
12.05.2011 04:00 11,4 C 92 % 1015,4 hPa 0,0 l/m N 0,00 h 0 W/m 0,9 km/h (0 Bft)
12.05.2011 05:00 11,1 C 95 % 1015,0 hPa 0,0 l/m N 0,00 h 0 W/m 2,4 km/h (1 Bft)
12.05.2011 06:00 11,5 C 94 % 1014,5 hPa 0,0 l/m NW 0,00 h 31 W/m 1,3 km/h (1 Bft)
12.05.2011 07:00 13,0 C 91 % 1014,6 hPa 0,0 l/m N 0,00 h 93 W/m 0,7 km/h (0 Bft)
12.05.2011 08:00 14,8 C 85 % 1014,8 hPa 0,0 l/m W-NW 0,00 h 96 W/m 4,8 km/h (1 Bft)
12.05.2011 09:00 14,2 C 92 % 1014,5 hPa 1,4 l/m S-SO 0,00 h 70 W/m 4,4 km/h (1 Bft)
12.05.2011 10:00 14,8 C 93 % 1014,4 hPa 0,0 l/m S-SW 0,00 h 130 W/m 8,0 km/h (2 Bft)
12.05.2011 11:00 15,3 C 91 % 1014,7 hPa 0,8 l/m SW 0,00 h 125 W/m 11,1 km/h (2 Bft)
12.05.2011 12:00 14,8 C 94 % 1015,2 hPa 0,6 l/m W-SW 0,00 h 132 W/m 11,4 km/h (2 Bft)
12.05.2011 13:00 15,5 C 93 % 1015,2 hPa 0,0 l/m SW 0,00 h 166 W/m 9,7 km/h (2 Bft)
12.05.2011 14:00 15,5 C 90 % 1015,2 hPa 0,0 l/m W-SW 0,00 h 110 W/m 13,2 km/h (3 Bft)
12.05.2011 15:00 15,4 C 90 % 1015,2 hPa 0,2 l/m W 0,00 h 140 W/m 12,2 km/h (2 Bft)
12.05.2011 16:00 16,6 C 84 % 1015,0 hPa 0,0 l/m W-SW 0,00 h 193 W/m 12,2 km/h (2 Bft)
12.05.2011 17:00 16,5 C 86 % 1015,1 hPa 0,4 l/m W-SW 0,42 h 250 W/m 11,0 km/h (2 Bft)
12.05.2011 18:00 17,0 C 82 % 1015,1 hPa 0,0 l/m W-SW 0,33 h 203 W/m 8,7 km/h (2 Bft)
12.05.2011 19:00 16,5 C 81 % 1015,3 hPa 0,0 l/m W-SW 0,42 h 129 W/m 8,4 km/h (2 Bft)
12.05.2011 20:00 15,7 C 83 % 1015,9 hPa 0,0 l/m W-SW 0,08 h 19 W/m 7,5 km/h (2 Bft)
12.05.2011 21:00 14,3 C 81 % 1016,7 hPa 0,0 l/m W 0,00 h 0 W/m 6,1 km/h (2 Bft)
12.05.2011 22:00 12,4 C 87 % 1017,3 hPa 0,0 l/m W 0,00 h 0 W/m 4,0 km/h (1 Bft)
12.05.2011 23:00 11,6 C 89 % 1017,9 hPa 0,0 l/m W 0,00 h 0 W/m 4,3 km/h (1 Bft)
13.05.2011 00:00 10,5 C 91 % 1018,4 hPa 0,0 l/m N 0,00 h 0 W/m 3,2 km/h (1 Bft)
13.05.2011 01:00 9,7 C 92 % 1018,9 hPa 0,0 l/m W 0,00 h 0 W/m 2,4 km/h (1 Bft)
13.05.2011 02:00 10,0 C 87 % 1019,1 hPa 0,0 l/m W-NW 0,00 h 0 W/m 4,9 km/h (1 Bft)
13.05.2011 03:00 10,8 C 77 % 1019,2 hPa 0,0 l/m W-NW 0,00 h 0 W/m 8,3 km/h (2 Bft)
13.05.2011 04:00 9,8 C 79 % 1019,5 hPa 0,0 l/m NW 0,00 h 0 W/m 5,6 km/h (1 Bft)
13.05.2011 05:00 9,1 C 83 % 1020,1 hPa 0,0 l/m N 0,00 h 5 W/m 0,7 km/h (0 Bft)
13.05.2011 06:00 9,0 C 83 % 1020,7 hPa 0,0 l/m N-NW 0,00 h 15 W/m 2,3 km/h (1 Bft)
13.05.2011 07:00 9,6 C 80 % 1021,0 hPa 0,0 l/m N 0,58 h 155 W/m 2,8 km/h (1 Bft)
13.05.2011 08:00 11,2 C 74 % 1021,1 hPa 0,0 l/m O-NO 0,75 h 305 W/m 7,5 km/h (2 Bft)
13.05.2011 09:00 13,0 C 68 % 1020,8 hPa 0,0 l/m O 0,92 h 497 W/m 11,8 km/h (2 Bft)
13.05.2011 10:00 14,4 C 64 % 1020,6 hPa 0,0 l/m O-SO 0,92 h 663 W/m 10,5 km/h (2 Bft)
13.05.2011 11:00 15,9 C 56 % 1020,2 hPa 0,0 l/m N-NO 1,00 h 826 W/m 10,7 km/h (2 Bft)
13.05.2011 12:00 17,1 C 52 % 1019,7 hPa 0,0 l/m O-SO 1,00 h 891 W/m 9,0 km/h (2 Bft)
13.05.2011 13:00 18,3 C 49 % 1019,1 hPa 0,0 l/m O 0,92 h 846 W/m 10,9 km/h (2 Bft)
13.05.2011 14:00 18,9 C 48 % 1018,3 hPa 0,0 l/m O 0,83 h 767 W/m 12,8 km/h (3 Bft)
13.05.2011 15:00 19,3 C 47 % 1017,4 hPa 0,0 l/m N-NO 0,50 h 515 W/m 13,0 km/h (3 Bft)
13.05.2011 16:00 19,9 C 44 % 1016,8 hPa 0,0 l/m O-NO 0,92 h 627 W/m 13,3 km/h (3 Bft)
13.05.2011 17:00 20,1 C 44 % 1016,0 hPa 0,0 l/m O-NO 1,00 h 516 W/m 13,3 km/h (3 Bft)
13.05.2011 18:00 19,7 C 45 % 1015,6 hPa 0,0 l/m N-NO 1,00 h 320 W/m 14,1 km/h (3 Bft)
13.05.2011 19:00 18,5 C 49 % 1015,5 hPa 0,0 l/m N 0,83 h 127 W/m 10,4 km/h (2 Bft)
13.05.2011 20:00 16,5 C 57 % 1015,4 hPa 0,0 l/m N 0,00 h 19 W/m 7,0 km/h (2 Bft)
13.05.2011 21:00 14,1 C 66 % 1015,5 hPa 0,0 l/m N 0,00 h 0 W/m 4,3 km/h (1 Bft)
13.05.2011 22:00 12,7 C 72 % 1015,5 hPa 0,0 l/m N 0,00 h 0 W/m 1,7 km/h (1 Bft)
13.05.2011 23:00 11,7 C 74 % 1015,3 hPa 0,0 l/m N 0,00 h 0 W/m 2,0 km/h (1 Bft)
14.05.2011 00:00 11,4 C 74 % 1014,9 hPa 0,0 l/m N-NW 0,00 h 0 W/m 4,9 km/h (1 Bft)
14.05.2011 01:00 11,1 C 74 % 1014,6 hPa 0,0 l/m NW 0,00 h 0 W/m 6,0 km/h (2 Bft)
14.05.2011 02:00 10,4 C 76 % 1014,4 hPa 0,0 l/m N-NW 0,00 h 0 W/m 7,5 km/h (2 Bft)
14.05.2011 03:00 10,2 C 78 % 1014,0 hPa 0,0 l/m N-NW 0,00 h 0 W/m 4,4 km/h (1 Bft)
14.05.2011 04:00 9,8 C 81 % 1014,0 hPa 0,0 l/m N-NW 0,00 h 0 W/m 0,7 km/h (0 Bft)
14.05.2011 05:00 9,7 C 87 % 1014,1 hPa 0,4 l/m S-SW 0,00 h 0 W/m 4,0 km/h (1 Bft)
14.05.2011 06:00 9,6 C 93 % 1013,9 hPa 0,4 l/m S 0,00 h 11 W/m 2,0 km/h (1 Bft)
14.05.2011 07:00 10,5 C 95 % 1013,4 hPa 0,0 l/m N 0,00 h 50 W/m 1,5 km/h (1 Bft)
14.05.2011 08:00 12,2 C 93 % 1013,4 hPa 0,0 l/m S-SW 0,17 h 170 W/m 8,8 km/h (2 Bft)
14.05.2011 09:00 15,1 C 85 % 1013,2 hPa 0,0 l/m S-SW 1,00 h 542 W/m 16,2 km/h (3 Bft)
14.05.2011 10:00 17,6 C 73 % 1012,8 hPa 0,0 l/m SW 0,58 h 514 W/m 19,0 km/h (3 Bft)
14.05.2011 11:00 18,6 C 62 % 1012,6 hPa 0,0 l/m W 0,67 h 656 W/m 18,2 km/h (3 Bft)
14.05.2011 12:00 20,3 C 51 % 1012,0 hPa 0,0 l/m SW 0,75 h 754 W/m 20,9 km/h (4 Bft)
14.05.2011 13:00 20,2 C 50 % 1011,5 hPa 0,0 l/m SW 0,17 h 382 W/m 20,1 km/h (4 Bft)
14.05.2011 14:00 19,7 C 54 % 1011,2 hPa 0,0 l/m SW 0,25 h 307 W/m 22,4 km/h (4 Bft)
14.05.2011 15:00 19,2 C 57 % 1010,7 hPa 0,2 l/m W-SW 0,08 h 315 W/m 16,5 km/h (3 Bft)
14.05.2011 16:00 17,7 C 52 % 1010,8 hPa 0,4 l/m N-NW 0,00 h 51 W/m 14,4 km/h (3 Bft)
14.05.2011 17:00 13,4 C 75 % 1012,4 hPa 0,6 l/m NW 0,00 h 45 W/m 19,3 km/h (3 Bft)
14.05.2011 18:00 12,0 C 84 % 1013,2 hPa 0,4 l/m N-NW 0,00 h 31 W/m 17,6 km/h (3 Bft)
14.05.2011 19:00 10,9 C 86 % 1014,1 hPa 0,6 l/m N-NW 0,00 h 13 W/m 16,9 km/h (3 Bft)
14.05.2011 20:00 9,5 C 91 % 1015,1 hPa 0,8 l/m NW 0,00 h 5 W/m 9,1 km/h (2 Bft)
14.05.2011 21:00 9,0 C 93 % 1015,7 hPa 1,2 l/m NW 0,00 h 0 W/m 4,7 km/h (1 Bft)
14.05.2011 22:00 8,9 C 95 % 1016,5 hPa 1,2 l/m N 0,00 h 0 W/m 2,9 km/h (1 Bft)
14.05.2011 23:00 8,8 C 96 % 1016,8 hPa 1,0 l/m W-SW 0,00 h 0 W/m 6,6 km/h (2 Bft)
15.05.2011 00:00 8,7 C 96 % 1016,9 hPa 0,6 l/m W-SW 0,00 h 0 W/m 9,1 km/h (2 Bft)
15.05.2011 01:00 8,8 C 96 % 1017,1 hPa 1,2 l/m W 0,00 h 0 W/m 9,8 km/h (2 Bft)
15.05.2011 02:00 8,6 C 95 % 1016,9 hPa 0,2 l/m W 0,00 h 0 W/m 8,6 km/h (2 Bft)
15.05.2011 03:00 8,4 C 95 % 1017,0 hPa 0,0 l/m W-NW 0,00 h 0 W/m 8,7 km/h (2 Bft)
15.05.2011 04:00 8,3 C 95 % 1017,2 hPa 0,0 l/m W-NW 0,00 h 0 W/m 7,9 km/h (2 Bft)
15.05.2011 05:00 8,1 C 94 % 1017,6 hPa 0,0 l/m N 0,00 h 7 W/m 4,8 km/h (1 Bft)
15.05.2011 06:00 7,7 C 95 % 1017,9 hPa 0,0 l/m N 0,00 h 26 W/m 2,3 km/h (1 Bft)
15.05.2011 07:00 7,9 C 94 % 1018,6 hPa 0,0 l/m N 0,00 h 86 W/m 1,2 km/h (1 Bft)
15.05.2011 08:00 8,5 C 89 % 1019,1 hPa 0,2 l/m N-NW 0,33 h 237 W/m 6,4 km/h (2 Bft)
15.05.2011 09:00 10,0 C 74 % 1019,4 hPa 0,0 l/m N 0,67 h 449 W/m 8,6 km/h (2 Bft)
15.05.2011 10:00 10,5 C 68 % 1019,3 hPa 0,0 l/m N-NO 0,50 h 483 W/m 7,2 km/h (2 Bft)
15.05.2011 11:00 11,3 C 63 % 1019,1 hPa 0,0 l/m NO 0,33 h 338 W/m 7,4 km/h (2 Bft)
15.05.2011 12:00 11,1 C 63 % 1019,0 hPa 0,0 l/m N-NW 0,08 h 239 W/m 12,8 km/h (3 Bft)
15.05.2011 13:00 10,2 C 66 % 1019,2 hPa 0,0 l/m W-NW 0,00 h 249 W/m 17,6 km/h (3 Bft)
15.05.2011 14:00 12,2 C 61 % 1019,2 hPa 0,0 l/m W 0,50 h 447 W/m 16,0 km/h (3 Bft)
15.05.2011 15:00 12,4 C 58 % 1019,1 hPa 0,0 l/m W 0,83 h 699 W/m 18,6 km/h (3 Bft)
15.05.2011 16:00 10,1 C 70 % 1019,9 hPa 0,0 l/m N-NO 0,00 h 199 W/m 20,3 km/h (4 Bft)
15.05.2011 17:00 10,4 C 70 % 1020,2 hPa 0,2 l/m W 0,25 h 289 W/m 14,9 km/h (3 Bft)
15.05.2011 18:00 11,3 C 67 % 1020,4 hPa 0,0 l/m W 0,92 h 354 W/m 17,0 km/h (3 Bft)
15.05.2011 19:00 10,6 C 67 % 1020,9 hPa 0,0 l/m NW 0,42 h 102 W/m 14,2 km/h (3 Bft)
15.05.2011 20:00 9,8 C 71 % 1021,5 hPa 0,0 l/m W-NW 0,00 h 20 W/m 7,1 km/h (2 Bft)
15.05.2011 21:00 8,8 C 80 % 1022,4 hPa 0,0 l/m W 0,00 h 0 W/m 10,5 km/h (2 Bft)
15.05.2011 22:00 7,8 C 86 % 1023,1 hPa 0,0 l/m W 0,00 h 0 W/m 10,1 km/h (2 Bft)
15.05.2011 23:00 7,2 C 88 % 1023,2 hPa 0,0 l/m W 0,00 h 0 W/m 12,6 km/h (3 Bft)
Min-Datum _ 09.05.11 09.05.11 14.05.11 - - - - 10.05.11
_ Min-Zeit 06:05 16:05 15:35 - - - - 05:20
Minimum _ 6,9 C 19 % 1010,3 hPa - - - - 0,0 km/h (0 Bft)
Max-Datum _ 10.05.11 14.05.11 10.05.11 12.05.11 - 09.05.11 14.05.11 15.05.11
_ Max-Zeit 15:55 23:15 09:15 09:00 - 06:45 12:40 16:00
Maximum _ 25,1 C 96 % 1024,1 hPa 1,4 l/m - 0,08 h 1028 W/m 32,2 km/h
N (5 Bft)
Durchschnitt _ 14,3 C 67 % 1018,6 hPa #13,0 l/m W #48:50 h 320 W/m 8,5 km/h (2 Bft)